Time;durP1;ratioP1;P1;durP2;ratioP2;P2;SDS_P1;SDS_P2;PMS_P1;PMS_P2;Temp;Humidity;BMP_temperature;BMP_pressure;BME280_temperature;BME280_humidity;BME280_pressure;Samples;Min_cycle;Max_cycle;Signal;HPM_P1;HPM_P2
2022/11/30 00:00:59;;;;;;;;;;;7.10;99.90;;;;;;4990033;28;19927;-74
2022/11/30 00:03:25;;;;;;;;;;;7.10;99.90;;;;;;4941166;28;174008;-74
2022/11/30 00:05:51;;;;;;;;;;;7.00;99.90;;;;;;4961491;28;19926;-74
2022/11/30 00:08:17;;;;;;;;;;;7.10;99.90;;;;;;4960901;28;208405;-74
2022/11/30 00:10:43;;;;;;;;;;;7.00;99.90;;;;;;4979138;28;20061;-74
2022/11/30 00:13:09;;;;;;;;;;;6.90;99.90;;;;;;4984094;28;135968;-74
2022/11/30 00:15:36;;;;;;;;;;;6.80;99.90;;;;;;4980735;28;20372;-74
2022/11/30 00:18:02;;;;;;;;;;;6.80;99.90;;;;;;4974464;28;208390;-74
2022/11/30 00:20:28;;;;;;;;;;;6.60;99.90;;;;;;5000149;28;19934;-74
2022/11/30 00:22:55;;;;;;;;;;;6.60;99.90;;;;;;4958284;28;206130;-74
2022/11/30 00:25:22;;;;;;;;;;;6.50;99.90;;;;;;4998254;28;19933;-73
2022/11/30 00:27:48;;;;;;;;;;;6.40;99.90;;;;;;4967122;28;207925;-74
2022/11/30 00:30:14;;;;;;;;;;;6.30;99.90;;;;;;5012048;28;19930;-74
2022/11/30 00:32:40;;;;;;;;;;;6.20;99.90;;;;;;4959890;28;146911;-73
2022/11/30 00:35:06;;;;;;;;;;;6.20;99.90;;;;;;4973657;28;19941;-74
2022/11/30 00:37:33;;;;;;;;;;;6.10;99.90;;;;;;4952375;28;209116;-75
2022/11/30 00:39:59;;;;;;;;;;;6.00;99.90;;;;;;4991169;28;19934;-75
2022/11/30 00:42:25;;;;;;;;;;;6.00;99.90;;;;;;4950441;28;210007;-75
2022/11/30 00:44:51;;;;;;;;;;;6.00;99.90;;;;;;4992794;28;19929;-74
2022/11/30 00:47:17;;;;;;;;;;;6.00;99.90;;;;;;4960561;28;207232;-74
2022/11/30 00:49:43;;;;;;;;;;;5.90;99.90;;;;;;4981234;28;19926;-75
2022/11/30 00:52:09;;;;;;;;;;;5.90;99.90;;;;;;4947870;28;211543;-74
2022/11/30 00:54:36;;;;;;;;;;;6.00;99.90;;;;;;5015352;28;19937;-75
2022/11/30 00:57:02;;;;;;;;;;;6.00;99.90;;;;;;4963119;28;209183;-75
2022/11/30 00:59:28;;;;;;;;;;;6.00;99.90;;;;;;4990783;28;19972;-75
2022/11/30 01:01:54;;;;;;;;;;;6.00;99.90;;;;;;4955604;28;54463;-75
2022/11/30 01:04:20;;;;;;;;;;;6.00;99.90;;;;;;4976516;28;19929;-74
2022/11/30 01:06:46;;;;;;;;;;;6.00;99.90;;;;;;4970671;28;202459;-74
2022/11/30 01:09:12;;;;;;;;;;;6.00;99.90;;;;;;4991359;28;19926;-75
2022/11/30 01:11:38;;;;;;;;;;;6.00;99.90;;;;;;4972267;28;134540;-75
2022/11/30 01:14:04;;;;;;;;;;;6.00;99.90;;;;;;4987801;28;19945;-74
2022/11/30 01:16:30;;;;;;;;;;;6.00;99.90;;;;;;4945230;28;219550;-75
2022/11/30 01:18:57;;;;;;;;;;;6.00;99.90;;;;;;4993876;28;19926;-75
2022/11/30 01:21:24;;;;;;;;;;;6.00;99.90;;;;;;4947082;28;209548;-76
2022/11/30 01:23:50;;;;;;;;;;;6.00;99.90;;;;;;5027908;28;19941;-75
2022/11/30 01:26:16;;;;;;;;;;;6.10;99.90;;;;;;4993640;28;211297;-74
2022/11/30 01:28:43;;;;;;;;;;;6.10;99.90;;;;;;4980089;28;19932;-74
2022/11/30 01:31:10;;;;;;;;;;;6.10;99.90;;;;;;5008324;28;19936;-74
2022/11/30 01:33:37;;;;;;;;;;;6.10;99.90;;;;;;4966855;28;270910;-74
2022/11/30 01:36:04;;;;;;;;;;;6.10;99.90;;;;;;4979964;28;19922;-74
2022/11/30 01:38:31;;;;;;;;;;;6.10;99.90;;;;;;4964359;28;218755;-74
2022/11/30 01:40:57;;;;;;;;;;;6.10;99.90;;;;;;5008083;28;19937;-74
2022/11/30 01:43:43;;;;;;;;;;;6.10;99.90;;;;;;4976797;28;207257;-74
2022/11/30 01:46:22;;;;;;;;;;;6.10;99.90;;;;;;5009835;28;19926;-74
2022/11/30 01:48:52;;;;;;;;;;;6.10;99.90;;;;;;4958864;28;206480;-74
2022/11/30 01:51:18;;;;;;;;;;;6.10;99.90;;;;;;4983084;28;209247;-74
2022/11/30 01:53:44;;;;;;;;;;;6.20;99.90;;;;;;4972919;28;20010;-75
2022/11/30 01:56:10;;;;;;;;;;;6.20;99.90;;;;;;4959285;28;19923;-74
2022/11/30 01:58:36;;;;;;;;;;;6.20;99.90;;;;;;4972493;28;216944;-74
2022/11/30 02:01:02;;;;;;;;;;;6.20;99.90;;;;;;4986259;28;19934;-74
2022/11/30 02:03:35;;;;;;;;;;;6.20;99.90;;;;;;4964516;28;214207;-75
2022/11/30 02:06:01;;;;;;;;;;;6.20;99.90;;;;;;4980289;28;19921;-75
2022/11/30 02:08:27;;;;;;;;;;;6.20;99.90;;;;;;4981725;28;140087;-75
2022/11/30 02:11:05;;;;;;;;;;;6.20;99.90;;;;;;5085429;27;19925;-76
2022/11/30 02:13:40;;;;;;;;;;;6.20;99.90;;;;;;4990391;27;221444;-75
2022/11/30 02:16:18;;;;;;;;;;;6.30;99.90;;;;;;5039760;28;19925;-75
2022/11/30 02:18:44;;;;;;;;;;;6.30;99.90;;;;;;4989572;28;207130;-75
2022/11/30 02:21:16;;;;;;;;;;;6.30;99.90;;;;;;5056827;28;19924;-75
2022/11/30 02:23:57;;;;;;;;;;;6.30;99.90;;;;;;4995793;28;222849;-75
2022/11/30 02:26:33;;;;;;;;;;;6.30;99.90;;;;;;5001668;28;228616;-75
2022/11/30 02:29:02;;;;;;;;;;;6.30;99.90;;;;;;5034975;28;19926;-75
2022/11/30 02:31:39;;;;;;;;;;;6.30;99.90;;;;;;4979230;28;230398;-75
2022/11/30 02:34:06;;;;;;;;;;;6.40;99.90;;;;;;4998119;28;19924;-75
2022/11/30 02:36:32;;;;;;;;;;;6.40;99.90;;;;;;4963616;28;195856;-75
2022/11/30 02:38:58;;;;;;;;;;;6.30;99.90;;;;;;5018531;28;19994;-75
2022/11/30 02:41:24;;;;;;;;;;;6.30;99.90;;;;;;4999907;28;208405;-75
2022/11/30 02:43:50;;;;;;;;;;;6.40;99.90;;;;;;5035012;28;19948;-75
2022/11/30 02:46:25;;;;;;;;;;;6.40;99.90;;;;;;5066162;28;214764;-76
2022/11/30 02:49:02;;;;;;;;;;;6.40;99.90;;;;;;4986104;28;19928;-75
2022/11/30 02:51:28;;;;;;;;;;;6.40;99.90;;;;;;5029867;28;214881;-75
2022/11/30 02:53:55;;;;;;;;;;;6.40;99.90;;;;;;5030436;28;19929;-75
2022/11/30 02:56:21;;;;;;;;;;;6.40;99.90;;;;;;4995949;28;205607;-74
2022/11/30 02:58:47;;;;;;;;;;;6.40;99.90;;;;;;5020840;28;19928;-75
2022/11/30 03:01:13;;;;;;;;;;;6.40;99.90;;;;;;5015761;28;217017;-75
2022/11/30 03:03:39;;;;;;;;;;;6.40;99.90;;;;;;4932788;28;255498;-75
2022/11/30 03:06:05;;;;;;;;;;;6.40;99.90;;;;;;5060052;28;19983;-75
2022/11/30 03:08:31;;;;;;;;;;;6.40;99.90;;;;;;4995386;28;207204;-74
2022/11/30 03:11:00;;;;;;;;;;;6.40;99.90;;;;;;5066887;28;19935;-75
2022/11/30 03:13:26;;;;;;;;;;;6.40;99.90;;;;;;5054549;28;209868;-75
2022/11/30 03:15:52;;;;;;;;;;;6.40;99.90;;;;;;5092369;28;19925;-75
2022/11/30 03:18:18;;;;;;;;;;;6.40;99.90;;;;;;5026310;28;212473;-75
2022/11/30 03:20:43;;;;;;;;;;;6.40;99.90;;;;;;5101780;28;19931;-75
2022/11/30 03:23:09;;;;;;;;;;;6.40;99.90;;;;;;5032983;28;180867;-75
2022/11/30 03:25:35;;;;;;;;;;;6.40;99.90;;;;;;5077323;28;20438;-75
2022/11/30 03:28:02;;;;;;;;;;;6.40;99.90;;;;;;5027179;28;121219;-76
2022/11/30 03:30:28;;;;;;;;;;;6.40;99.90;;;;;;5073496;28;19947;-75
2022/11/30 03:32:54;;;;;;;;;;;6.40;99.90;;;;;;5017592;28;213907;-75
2022/11/30 03:35:20;;;;;;;;;;;6.40;99.90;;;;;;5076584;28;19931;-74
2022/11/30 03:37:46;;;;;;;;;;;6.40;99.90;;;;;;5038314;28;222752;-75
2022/11/30 03:40:12;;;;;;;;;;;6.40;99.90;;;;;;5078177;28;19928;-76
2022/11/30 03:42:38;;;;;;;;;;;6.40;99.90;;;;;;5018342;28;147930;-75
2022/11/30 03:45:04;;;;;;;;;;;6.40;99.90;;;;;;5069715;28;19979;-75
2022/11/30 03:47:30;;;;;;;;;;;6.40;99.90;;;;;;5004129;28;209534;-75
2022/11/30 03:49:56;;;;;;;;;;;6.40;99.90;;;;;;5077411;28;19924;-76
2022/11/30 03:52:23;;;;;;;;;;;6.40;99.90;;;;;;5034584;28;133353;-75
2022/11/30 03:54:49;;;;;;;;;;;6.40;99.90;;;;;;5089909;28;19935;-75
2022/11/30 03:57:14;;;;;;;;;;;6.40;99.90;;;;;;5037003;28;209816;-75
2022/11/30 03:59:40;;;;;;;;;;;6.40;99.90;;;;;;5074052;28;19928;-75
2022/11/30 04:02:06;;;;;;;;;;;6.40;99.90;;;;;;5015502;28;216272;-75
2022/11/30 04:04:32;;;;;;;;;;;6.40;99.90;;;;;;5051940;28;19924;-75
2022/11/30 04:06:58;;;;;;;;;;;6.40;99.90;;;;;;5018993;28;215228;-75
2022/11/30 04:09:24;;;;;;;;;;;6.40;99.90;;;;;;5058002;28;19942;-75
2022/11/30 04:11:51;;;;;;;;;;;6.50;99.90;;;;;;5025910;28;184031;-75
2022/11/30 04:14:17;;;;;;;;;;;6.40;99.90;;;;;;5087872;28;19921;-75
2022/11/30 04:16:43;;;;;;;;;;;6.50;99.90;;;;;;5026535;28;142237;-75
2022/11/30 04:19:09;;;;;;;;;;;6.50;99.90;;;;;;5063339;28;19920;-75
2022/11/30 04:21:35;;;;;;;;;;;6.50;99.90;;;;;;5021478;28;214833;-75
2022/11/30 04:24:00;;;;;;;;;;;6.50;99.90;;;;;;5086258;28;19978;-76
2022/11/30 04:26:26;;;;;;;;;;;6.50;99.90;;;;;;5026328;27;221408;-76
2022/11/30 04:28:52;;;;;;;;;;;6.50;99.90;;;;;;5056318;28;19929;-75
2022/11/30 04:31:18;;;;;;;;;;;6.50;99.90;;;;;;5079826;28;214377;-75
2022/11/30 04:33:44;;;;;;;;;;;6.50;99.90;;;;;;5033858;28;20035;-75
2022/11/30 04:36:28;;;;;;;;;;;6.40;99.90;;;;;;5078348;28;19920;-75
2022/11/30 04:38:54;;;;;;;;;;;6.50;99.90;;;;;;5045315;27;211141;-76
2022/11/30 04:41:20;;;;;;;;;;;6.50;99.90;;;;;;5038997;28;215053;-74
2022/11/30 04:43:46;;;;;;;;;;;6.50;99.90;;;;;;5029191;28;19932;-73
2022/11/30 04:46:12;;;;;;;;;;;6.50;99.90;;;;;;5097296;27;208239;-77
2022/11/30 04:48:38;;;;;;;;;;;6.50;99.90;;;;;;5040533;28;19947;-76
2022/11/30 04:51:05;;;;;;;;;;;6.50;99.90;;;;;;5103471;28;20461;-75
2022/11/30 04:53:32;;;;;;;;;;;6.50;99.90;;;;;;5021650;28;171961;-75
2022/11/30 04:55:58;;;;;;;;;;;6.50;99.90;;;;;;5110500;27;19931;-75
2022/11/30 04:58:24;;;;;;;;;;;6.50;99.90;;;;;;5001723;28;195053;-75
2022/11/30 05:00:52;;;;;;;;;;;6.50;99.90;;;;;;5088566;28;19925;-75
2022/11/30 05:03:18;;;;;;;;;;;6.50;99.90;;;;;;5007918;28;219167;-75
2022/11/30 05:05:44;;;;;;;;;;;6.50;99.90;;;;;;5069210;28;20455;-75
2022/11/30 05:08:10;;;;;;;;;;;6.50;99.90;;;;;;5006950;28;199791;-75
2022/11/30 05:10:36;;;;;;;;;;;6.50;99.90;;;;;;5071448;28;19931;-77
2022/11/30 05:13:02;;;;;;;;;;;6.50;99.90;;;;;;5009683;28;170020;-75
2022/11/30 05:15:28;;;;;;;;;;;6.50;99.90;;;;;;5058508;28;19920;-74
2022/11/30 05:17:57;;;;;;;;;;;6.50;99.90;;;;;;5016176;28;193900;-74
2022/11/30 05:20:23;;;;;;;;;;;6.50;99.90;;;;;;5066050;28;19925;-75
2022/11/30 05:22:48;;;;;;;;;;;6.60;99.90;;;;;;5025591;28;190454;-74
2022/11/30 05:25:15;;;;;;;;;;;6.50;99.90;;;;;;5072797;28;20047;-73
2022/11/30 05:27:40;;;;;;;;;;;6.50;99.90;;;;;;5043818;28;212246;-74
2022/11/30 05:30:07;;;;;;;;;;;6.50;99.90;;;;;;5071835;28;20463;-74
2022/11/30 05:32:33;;;;;;;;;;;6.50;99.90;;;;;;5035069;28;164805;-75
2022/11/30 05:34:59;;;;;;;;;;;6.50;99.90;;;;;;5085849;28;19920;-74
2022/11/30 05:37:24;;;;;;;;;;;6.50;99.90;;;;;;5039190;28;208397;-75
2022/11/30 05:39:50;;;;;;;;;;;6.50;99.90;;;;;;5081951;28;19920;-75
2022/11/30 05:42:16;;;;;;;;;;;6.50;99.90;;;;;;5024850;28;217603;-74
2022/11/30 05:44:42;;;;;;;;;;;6.50;99.90;;;;;;5066757;28;19924;-74
2022/11/30 05:47:08;;;;;;;;;;;6.50;99.90;;;;;;5023759;28;105375;-74
2022/11/30 05:49:34;;;;;;;;;;;6.50;99.90;;;;;;5059293;28;19924;-75
2022/11/30 05:52:00;;;;;;;;;;;6.50;99.90;;;;;;5022406;28;212203;-75
2022/11/30 05:54:26;;;;;;;;;;;6.50;99.90;;;;;;5061012;28;20011;-75
2022/11/30 05:56:52;;;;;;;;;;;6.50;99.90;;;;;;5030362;28;208343;-74
2022/11/30 05:59:18;;;;;;;;;;;6.50;99.90;;;;;;5075037;28;19971;-75
2022/11/30 06:01:44;;;;;;;;;;;6.50;99.90;;;;;;5024152;28;205577;-75
2022/11/30 06:04:10;;;;;;;;;;;6.50;99.90;;;;;;5087871;28;19921;-75
2022/11/30 06:06:36;;;;;;;;;;;6.50;99.90;;;;;;5024972;28;222084;-75
2022/11/30 06:09:02;;;;;;;;;;;6.50;99.90;;;;;;5081157;28;20033;-75
2022/11/30 06:11:27;;;;;;;;;;;6.40;99.90;;;;;;5022102;28;203914;-74
2022/11/30 06:13:53;;;;;;;;;;;6.40;99.90;;;;;;5072586;28;19924;-75
2022/11/30 06:16:20;;;;;;;;;;;6.40;99.90;;;;;;5043707;28;205519;-73
2022/11/30 06:18:46;;;;;;;;;;;6.40;99.90;;;;;;5068382;28;19931;-76
2022/11/30 06:21:12;;;;;;;;;;;6.40;99.90;;;;;;5109567;28;209628;-75
2022/11/30 06:23:38;;;;;;;;;;;6.40;99.90;;;;;;5063404;28;154244;-75
2022/11/30 06:26:07;;;;;;;;;;;6.40;99.90;;;;;;5093596;28;19966;-75
2022/11/30 06:28:34;;;;;;;;;;;6.40;99.90;;;;;;5012819;28;231258;-76
2022/11/30 06:31:00;;;;;;;;;;;6.40;99.90;;;;;;5076536;28;19933;-74
2022/11/30 06:33:26;;;;;;;;;;;6.40;99.90;;;;;;5008609;28;205691;-74
2022/11/30 06:35:52;;;;;;;;;;;6.40;99.90;;;;;;5073854;28;19936;-75
2022/11/30 06:38:19;;;;;;;;;;;6.40;99.90;;;;;;5034391;28;216440;-75
2022/11/30 06:40:45;;;;;;;;;;;6.40;99.90;;;;;;5069554;28;19931;-75
2022/11/30 06:43:11;;;;;;;;;;;6.40;99.90;;;;;;5031145;28;136219;-75
2022/11/30 06:45:37;;;;;;;;;;;6.40;99.90;;;;;;5071030;28;19931;-75
2022/11/30 06:48:03;;;;;;;;;;;6.40;99.90;;;;;;5030669;27;159073;-75
2022/11/30 06:50:29;;;;;;;;;;;6.40;99.90;;;;;;5065590;28;19929;-75
2022/11/30 06:52:55;;;;;;;;;;;6.30;99.90;;;;;;5034169;28;205797;-75
2022/11/30 06:55:22;;;;;;;;;;;6.30;99.90;;;;;;5072829;28;19928;-75
2022/11/30 06:57:48;;;;;;;;;;;6.40;99.90;;;;;;5039868;28;188702;-73
2022/11/30 07:00:14;;;;;;;;;;;6.30;99.90;;;;;;5074965;28;19928;-74
2022/11/30 07:02:41;;;;;;;;;;;6.40;99.90;;;;;;5021422;28;207505;-73
2022/11/30 07:05:07;;;;;;;;;;;6.30;99.90;;;;;;5048113;28;19924;-74
2022/11/30 07:07:32;;;;;;;;;;;6.30;99.90;;;;;;5012086;28;167366;-74
2022/11/30 07:09:58;;;;;;;;;;;6.30;99.90;;;;;;5079297;28;19924;-73
2022/11/30 07:12:25;;;;;;;;;;;6.30;99.90;;;;;;5042084;28;215120;-73
2022/11/30 07:14:52;;;;;;;;;;;6.30;99.90;;;;;;5087834;28;19920;-73
2022/11/30 07:17:18;;;;;;;;;;;6.30;99.90;;;;;;5039167;28;208781;-73
2022/11/30 07:19:45;;;;;;;;;;;6.30;99.90;;;;;;5073305;28;19932;-74
2022/11/30 07:22:12;;;;;;;;;;;6.30;99.90;;;;;;5021194;28;210504;-73
2022/11/30 07:27:22;;;;;;;;;;;6.30;99.90;;;;;;5046009;27;154004;-74
2022/11/30 07:29:51;;;;;;;;;;;6.30;99.90;;;;;;5056169;28;19929;-74
2022/11/30 07:32:17;;;;;;;;;;;6.30;99.90;;;;;;5046046;28;144864;-73
2022/11/30 07:34:43;;;;;;;;;;;6.30;99.90;;;;;;5064528;28;20389;-74
2022/11/30 07:37:09;;;;;;;;;;;6.30;99.90;;;;;;5014092;28;161645;-74
2022/11/30 07:39:35;;;;;;;;;;;6.30;99.90;;;;;;5084820;28;19920;-74
2022/11/30 07:42:01;;;;;;;;;;;6.30;99.90;;;;;;5022640;28;209003;-73
2022/11/30 07:44:27;;;;;;;;;;;6.30;99.90;;;;;;5035856;28;19950;-73
2022/11/30 07:46:53;;;;;;;;;;;6.30;99.90;;;;;;5030012;28;178030;-73
2022/11/30 07:49:18;;;;;;;;;;;6.30;99.90;;;;;;5081152;28;19935;-73
2022/11/30 07:51:44;;;;;;;;;;;6.30;99.90;;;;;;5008778;28;169472;-73
2022/11/30 07:54:10;;;;;;;;;;;6.30;99.90;;;;;;5061242;28;19920;-73
2022/11/30 07:56:36;;;;;;;;;;;6.30;99.90;;;;;;5030904;28;196535;-72
2022/11/30 07:59:02;;;;;;;;;;;6.30;99.90;;;;;;5073138;28;19929;-73
2022/11/30 08:01:29;;;;;;;;;;;6.30;99.90;;;;;;5014607;28;208065;-72
2022/11/30 08:03:56;;;;;;;;;;;6.30;99.90;;;;;;5087026;28;19920;-73
2022/11/30 08:06:25;;;;;;;;;;;6.30;99.90;;;;;;5037653;28;200065;-72
2022/11/30 08:08:52;;;;;;;;;;;6.20;99.90;;;;;;5077252;28;19924;-73
2022/11/30 08:11:19;;;;;;;;;;;6.20;99.90;;;;;;5050321;28;209159;-73
2022/11/30 08:13:45;;;;;;;;;;;6.30;99.90;;;;;;5035187;28;19921;-73
2022/11/30 08:16:15;;;;;;;;;;;6.30;99.90;;;;;;5101062;28;227615;-73
2022/11/30 08:18:42;;;;;;;;;;;6.20;99.90;;;;;;5029533;28;221454;-73
2022/11/30 08:21:09;;;;;;;;;;;6.30;99.90;;;;;;5074954;28;19920;-73
2022/11/30 08:23:36;;;;;;;;;;;6.30;99.90;;;;;;5023476;28;169951;-72
2022/11/30 08:26:05;;;;;;;;;;;6.30;99.90;;;;;;5074677;28;19921;-73
2022/11/30 08:28:31;;;;;;;;;;;6.30;99.90;;;;;;5022565;28;169279;-73
2022/11/30 08:31:02;;;;;;;;;;;6.30;99.90;;;;;;5088724;28;19936;-73
2022/11/30 08:33:29;;;;;;;;;;;6.30;99.90;;;;;;5020122;28;208092;-73
2022/11/30 08:36:04;;;;;;;;;;;6.30;99.90;;;;;;5092832;28;19924;-73
2022/11/30 08:38:30;;;;;;;;;;;6.30;99.90;;;;;;5022536;28;211610;-74
2022/11/30 08:40:57;;;;;;;;;;;6.30;99.90;;;;;;5061336;28;19924;-73
2022/11/30 08:43:22;;;;;;;;;;;6.30;99.90;;;;;;5017918;28;209758;-73
2022/11/30 08:45:48;;;;;;;;;;;6.40;99.90;;;;;;5072562;28;19982;-73
2022/11/30 08:48:14;;;;;;;;;;;6.30;99.90;;;;;;5024529;28;212763;-73
2022/11/30 08:50:40;;;;;;;;;;;6.40;99.90;;;;;;5075283;28;19935;-73
2022/11/30 08:53:06;;;;;;;;;;;6.40;99.90;;;;;;5032693;28;114582;-73
2022/11/30 08:55:32;;;;;;;;;;;6.40;99.90;;;;;;5073648;28;19930;-73
2022/11/30 08:57:58;;;;;;;;;;;6.40;99.90;;;;;;5025306;28;214509;-73
2022/11/30 09:00:24;;;;;;;;;;;6.40;99.90;;;;;;5056979;28;20423;-73
2022/11/30 09:02:50;;;;;;;;;;;6.40;99.90;;;;;;5006005;28;208944;-73
2022/11/30 09:05:16;;;;;;;;;;;6.50;99.90;;;;;;5075012;28;19962;-73
2022/11/30 09:07:42;;;;;;;;;;;6.50;99.90;;;;;;5031108;28;78565;-73
2022/11/30 09:10:08;;;;;;;;;;;6.50;99.90;;;;;;5072799;28;20388;-73
2022/11/30 09:12:35;;;;;;;;;;;6.40;99.90;;;;;;5019525;27;209178;-73
2022/11/30 09:15:01;;;;;;;;;;;6.40;99.90;;;;;;5065196;28;19925;-73
2022/11/30 09:17:27;;;;;;;;;;;6.50;99.90;;;;;;5027269;28;210012;-73
2022/11/30 09:19:53;;;;;;;;;;;6.40;99.90;;;;;;5073505;28;20022;-73
2022/11/30 09:22:19;;;;;;;;;;;6.50;99.90;;;;;;5029658;28;218763;-73
2022/11/30 09:24:45;;;;;;;;;;;6.50;99.90;;;;;;5057689;28;19928;-73
2022/11/30 09:27:11;;;;;;;;;;;6.60;99.90;;;;;;5020907;28;209963;-73
2022/11/30 09:29:37;;;;;;;;;;;6.60;99.90;;;;;;5055433;28;20008;-73
2022/11/30 09:32:03;;;;;;;;;;;6.60;99.90;;;;;;5020619;28;198834;-74
2022/11/30 09:34:29;;;;;;;;;;;6.70;99.90;;;;;;5067227;28;19925;-73
2022/11/30 09:36:55;;;;;;;;;;;6.70;99.90;;;;;;5029835;28;214400;-73
2022/11/30 09:39:21;;;;;;;;;;;6.70;99.90;;;;;;5089712;28;19952;-73
2022/11/30 09:41:52;;;;;;;;;;;6.60;99.90;;;;;;5024661;28;210907;-74
2022/11/30 09:44:39;;;;;;;;;;;6.70;99.90;;;;;;5082960;28;19920;-73
2022/11/30 09:47:28;;;;;;;;;;;6.70;99.90;;;;;;5026374;28;211536;-73
2022/11/30 09:49:54;;;;;;;;;;;6.70;99.90;;;;;;5076440;28;19927;-74
2022/11/30 09:52:32;;;;;;;;;;;6.70;99.90;;;;;;5013623;28;209578;-73
2022/11/30 09:55:02;;;;;;;;;;;6.80;99.90;;;;;;5066210;28;19924;-73
2022/11/30 09:57:30;;;;;;;;;;;6.90;99.90;;;;;;5022379;28;207880;-73
2022/11/30 09:59:56;;;;;;;;;;;6.90;99.90;;;;;;5059136;28;19924;-73
2022/11/30 10:02:25;;;;;;;;;;;6.80;99.90;;;;;;5010121;28;206813;-73
2022/11/30 10:04:51;;;;;;;;;;;6.90;99.90;;;;;;5063463;28;19931;-73
2022/11/30 10:07:44;;;;;;;;;;;6.90;99.90;;;;;;5025959;28;202431;-74
2022/11/30 10:10:10;;;;;;;;;;;6.90;99.90;;;;;;5077595;28;20234;-73
2022/11/30 10:12:56;;;;;;;;;;;6.80;99.90;;;;;;5044776;28;207331;-73
2022/11/30 10:15:32;;;;;;;;;;;6.90;99.90;;;;;;5080450;28;19928;-73
2022/11/30 10:18:30;;;;;;;;;;;6.90;99.90;;;;;;5029784;28;183136;-73
2022/11/30 10:20:59;;;;;;;;;;;6.90;99.90;;;;;;5001323;28;19921;-73
2022/11/30 10:23:46;;;;;;;;;;;6.80;99.90;;;;;;4952438;28;189305;-73
2022/11/30 10:26:21;;;;;;;;;;;6.80;99.90;;;;;;4997948;28;94764;-72
2022/11/30 10:28:46;;;;;;;;;;;6.80;99.90;;;;;;4926875;28;209732;-73
2022/11/30 10:31:13;;;;;;;;;;;6.80;99.90;;;;;;4984119;28;151929;-72
2022/11/30 10:33:44;;;;;;;;;;;6.90;99.90;;;;;;4963428;28;204252;-73
2022/11/30 10:36:22;;;;;;;;;;;6.90;99.90;;;;;;5004739;28;20315;-73
2022/11/30 10:38:49;;;;;;;;;;;6.90;99.90;;;;;;4928366;28;195850;-73
2022/11/30 10:41:18;;;;;;;;;;;6.90;99.90;;;;;;4979940;28;163328;-73
2022/11/30 10:43:47;;;;;;;;;;;6.90;99.90;;;;;;4965065;28;19937;-73
2022/11/30 10:46:19;;;;;;;;;;;6.90;99.90;;;;;;4997603;28;19926;-74
2022/11/30 10:48:49;;;;;;;;;;;7.00;99.90;;;;;;4939721;28;214764;-73
2022/11/30 10:51:15;;;;;;;;;;;7.00;99.90;;;;;;4996854;28;186534;-72
2022/11/30 10:53:41;;;;;;;;;;;7.10;99.90;;;;;;4966020;28;27657;-73
2022/11/30 10:56:14;;;;;;;;;;;7.10;99.90;;;;;;5038587;28;20407;-74
2022/11/30 10:58:40;;;;;;;;;;;7.20;99.90;;;;;;5024583;28;172086;-74
2022/11/30 11:01:10;;;;;;;;;;;7.10;99.90;;;;;;5080516;28;20402;-74
2022/11/30 11:03:36;;;;;;;;;;;7.20;99.90;;;;;;5002802;28;208641;-73
2022/11/30 11:06:02;;;;;;;;;;;7.20;99.90;;;;;;5106218;27;19920;-74
2022/11/30 11:08:28;;;;;;;;;;;7.30;99.90;;;;;;4996256;28;166387;-74
2022/11/30 11:10:54;;;;;;;;;;;7.20;99.90;;;;;;5077300;28;19925;-74
2022/11/30 11:13:42;;;;;;;;;;;7.20;99.90;;;;;;5037116;28;209412;-74
2022/11/30 11:16:09;;;;;;;;;;;7.20;99.90;;;;;;5081063;28;20050;-74
2022/11/30 11:18:36;;;;;;;;;;;7.20;99.90;;;;;;5038063;28;155005;-74
2022/11/30 11:21:21;;;;;;;;;;;7.20;99.90;;;;;;5081003;28;19935;-74
2022/11/30 11:23:51;;;;;;;;;;;7.20;99.90;;;;;;5001855;28;209767;-74
2022/11/30 11:26:20;;;;;;;;;;;7.10;99.90;;;;;;5059289;28;209219;-75
2022/11/30 11:28:49;;;;;;;;;;;7.10;99.90;;;;;;5066392;28;19943;-74
2022/11/30 11:31:30;;;;;;;;;;;7.00;99.90;;;;;;5083890;28;218039;-74
2022/11/30 11:33:57;;;;;;;;;;;7.10;99.90;;;;;;5043048;28;212903;-74
2022/11/30 11:36:24;;;;;;;;;;;7.10;99.90;;;;;;5055776;27;204698;-73
2022/11/30 11:38:50;;;;;;;;;;;7.10;99.90;;;;;;5091044;28;19924;-73
2022/11/30 11:41:25;;;;;;;;;;;7.10;99.90;;;;;;5043323;28;206493;-74
2022/11/30 11:44:00;;;;;;;;;;;7.10;99.90;;;;;;5040299;28;20060;-73
2022/11/30 11:46:27;;;;;;;;;;;7.10;99.90;;;;;;5028621;28;226454;-73
2022/11/30 11:48:57;;;;;;;;;;;7.20;99.90;;;;;;5087838;28;19932;-74
2022/11/30 11:51:33;;;;;;;;;;;7.10;99.90;;;;;;5029727;28;212919;-74
2022/11/30 11:54:11;;;;;;;;;;;7.10;99.90;;;;;;5058835;28;19935;-73
2022/11/30 11:56:37;;;;;;;;;;;7.10;99.90;;;;;;5030564;28;207526;-74
2022/11/30 11:59:21;;;;;;;;;;;7.20;99.90;;;;;;5077256;28;20549;-75
2022/11/30 12:01:53;;;;;;;;;;;7.20;99.90;;;;;;5009713;28;214839;-74
2022/11/30 12:04:38;;;;;;;;;;;7.20;99.90;;;;;;5022968;28;19931;-74
2022/11/30 12:07:11;;;;;;;;;;;7.20;99.90;;;;;;5020003;28;208239;-73
2022/11/30 12:09:39;;;;;;;;;;;7.10;99.90;;;;;;5066287;28;19928;-73
2022/11/30 12:12:11;;;;;;;;;;;7.00;99.90;;;;;;5031621;28;208716;-73
2022/11/30 12:14:37;;;;;;;;;;;7.10;99.90;;;;;;5081392;28;19924;-74
2022/11/30 12:17:15;;;;;;;;;;;7.20;99.90;;;;;;5050428;28;189902;-74
2022/11/30 12:19:59;;;;;;;;;;;7.20;99.90;;;;;;5065315;28;19935;-74
2022/11/30 12:22:43;;;;;;;;;;;7.20;99.90;;;;;;5011265;28;208888;-73
2022/11/30 12:25:17;;;;;;;;;;;7.20;99.90;;;;;;5074074;28;19931;-73
2022/11/30 12:27:43;;;;;;;;;;;7.10;99.90;;;;;;5032011;28;160418;-73
2022/11/30 12:30:17;;;;;;;;;;;7.10;99.90;;;;;;5073975;28;20740;-74
2022/11/30 12:32:46;;;;;;;;;;;7.20;99.90;;;;;;5022243;28;222925;-73
2022/11/30 12:35:15;;;;;;;;;;;7.10;99.90;;;;;;5071922;28;19925;-73
2022/11/30 12:37:49;;;;;;;;;;;7.20;99.90;;;;;;5027903;28;223367;-74
2022/11/30 12:40:20;;;;;;;;;;;7.20;99.90;;;;;;5078993;28;19924;-73
2022/11/30 12:42:58;;;;;;;;;;;7.20;99.90;;;;;;5029948;28;203496;-73
2022/11/30 12:45:33;;;;;;;;;;;7.20;99.90;;;;;;5076264;28;19920;-74
2022/11/30 12:48:03;;;;;;;;;;;7.20;99.90;;;;;;5012331;28;210217;-74
2022/11/30 12:50:32;;;;;;;;;;;7.20;99.90;;;;;;5071787;28;19928;-73
2022/11/30 12:53:07;;;;;;;;;;;7.20;99.90;;;;;;5034880;28;137745;-73
2022/11/30 12:55:33;;;;;;;;;;;7.10;99.90;;;;;;5081629;28;19931;-73
2022/11/30 12:58:05;;;;;;;;;;;7.10;99.90;;;;;;5015126;28;174839;-73
2022/11/30 13:00:54;;;;;;;;;;;7.10;99.90;;;;;;5067579;28;19920;-73
2022/11/30 13:03:28;;;;;;;;;;;7.10;99.90;;;;;;4994634;28;216764;-73
2022/11/30 13:05:59;;;;;;;;;;;7.10;99.90;;;;;;5055450;28;19936;-73
2022/11/30 13:08:30;;;;;;;;;;;7.20;99.90;;;;;;4997353;28;207172;-73
2022/11/30 13:11:07;;;;;;;;;;;7.20;99.90;;;;;;5069631;28;19939;-73
2022/11/30 13:13:34;;;;;;;;;;;7.20;99.90;;;;;;4994633;28;209152;-73
2022/11/30 13:16:02;;;;;;;;;;;7.30;99.90;;;;;;5053941;28;19925;-73
2022/11/30 13:18:29;;;;;;;;;;;7.60;99.90;;;;;;4981851;28;211464;-73
2022/11/30 13:21:03;;;;;;;;;;;8.70;99.90;;;;;;5070942;28;19924;-73
2022/11/30 13:23:41;;;;;;;;;;;8.40;99.90;;;;;;5025482;28;127906;-73
2022/11/30 13:26:27;;;;;;;;;;;8.10;99.90;;;;;;5065950;28;20661;-73
2022/11/30 13:29:08;;;;;;;;;;;8.10;99.90;;;;;;4982402;28;98561;-72
2022/11/30 13:31:35;;;;;;;;;;;7.90;99.90;;;;;;5019785;28;194181;-73
2022/11/30 13:34:01;;;;;;;;;;;7.70;99.90;;;;;;5046576;28;19924;-73
2022/11/30 13:36:31;;;;;;;;;;;8.00;99.90;;;;;;5014704;28;215793;-73
2022/11/30 13:39:12;;;;;;;;;;;7.70;99.90;;;;;;5066120;28;19931;-72
2022/11/30 13:41:38;;;;;;;;;;;7.60;99.90;;;;;;5027913;28;158178;-73
2022/11/30 13:44:19;;;;;;;;;;;7.40;99.90;;;;;;5075924;28;19925;-73
2022/11/30 13:46:49;;;;;;;;;;;7.30;99.90;;;;;;5022863;28;151651;-73
2022/11/30 13:49:15;;;;;;;;;;;7.30;99.90;;;;;;5041375;28;19928;-73
2022/11/30 13:51:41;;;;;;;;;;;7.20;99.90;;;;;;5011437;28;148843;-73
2022/11/30 13:54:25;;;;;;;;;;;7.20;99.90;;;;;;5050148;28;19928;-73
2022/11/30 13:56:51;;;;;;;;;;;7.20;99.90;;;;;;5041744;28;158764;-73
2022/11/30 13:59:40;;;;;;;;;;;7.20;99.90;;;;;;5066433;28;19931;-73
2022/11/30 14:02:32;;;;;;;;;;;7.20;99.90;;;;;;5013695;28;171812;-73
2022/11/30 14:05:16;;;;;;;;;;;7.00;99.90;;;;;;5048591;28;20420;-73
2022/11/30 14:07:45;;;;;;;;;;;7.00;99.90;;;;;;5011224;28;212673;-73
2022/11/30 14:10:28;;;;;;;;;;;7.00;99.90;;;;;;5048042;28;20401;-73
2022/11/30 14:12:57;;;;;;;;;;;6.90;99.90;;;;;;5008141;28;159747;-73
2022/11/30 14:15:39;;;;;;;;;;;6.90;99.90;;;;;;5022142;28;19925;-73
2022/11/30 14:18:08;;;;;;;;;;;7.00;99.90;;;;;;5026652;28;164892;-74
2022/11/30 14:20:41;;;;;;;;;;;7.00;99.90;;;;;;5052266;28;19925;-75
2022/11/30 14:23:10;;;;;;;;;;;6.90;99.90;;;;;;5037419;28;70496;-73
2022/11/30 14:25:38;;;;;;;;;;;6.90;99.90;;;;;;5050399;28;19924;-74
2022/11/30 14:28:05;;;;;;;;;;;6.90;99.90;;;;;;5034848;28;27351;-73
2022/11/30 14:30:32;;;;;;;;;;;6.90;99.90;;;;;;5016412;28;19925;-74
2022/11/30 14:33:03;;;;;;;;;;;6.80;99.90;;;;;;5006010;28;136285;-73
2022/11/30 14:35:29;;;;;;;;;;;6.80;99.90;;;;;;5050325;28;19936;-73